Time;durP1;ratioP1;P1;durP2;ratioP2;P2;SDS_P1;SDS_P2;PMS_P1;PMS_P2;Temp;Humidity;BMP_temperature;BMP_pressure;BME280_temperature;BME280_humidity;BME280_pressure;Samples;Min_cycle;Max_cycle;Signal;HPM_P1;HPM_P2
2022/10/01 00:01:55;;;;;;;26.70;24.80;;;;;;;10.12;100.00;100386.53;5092568;28;20978;-47
2022/10/01 00:04:22;;;;;;;25.80;24.00;;;;;;;10.10;100.00;100388.56;5092405;28;20518;-46
2022/10/01 00:06:50;;;;;;;25.80;23.80;;;;;;;10.09;100.00;100377.09;5092988;28;20838;-49
2022/10/01 00:09:18;;;;;;;27.17;25.07;;;;;;;10.09;100.00;100373.63;5092912;28;20479;-48
2022/10/01 00:11:45;;;;;;;24.90;23.30;;;;;;;10.08;100.00;100364.78;5092486;28;20519;-45
2022/10/01 00:14:13;;;;;;;25.60;23.60;;;;;;;10.07;100.00;100364.97;5092164;28;20880;-48
2022/10/01 00:16:42;;;;;;;25.73;24.03;;;;;;;10.08;100.00;100364.78;5093106;28;20429;-46
2022/10/01 00:19:13;;;;;;;24.13;22.60;;;;;;;10.08;100.00;100358.63;5092621;28;20987;-49
2022/10/01 00:21:41;;;;;;;23.63;21.83;;;;;;;10.07;100.00;100357.81;5092153;28;20958;-49
2022/10/01 00:24:12;;;;;;;24.07;22.53;;;;;;;10.09;100.00;100353.13;5092199;28;20514;-46
2022/10/01 00:26:40;;;;;;;23.40;21.90;;;;;;;10.09;100.00;100338.97;5092625;28;20418;-46
2022/10/01 00:29:12;;;;;;;25.37;23.67;;;;;;;10.08;100.00;100340.81;5092796;28;20479;-46
2022/10/01 00:31:39;;;;;;;24.47;22.67;;;;;;;10.10;100.00;100337.94;5092222;28;20462;-48
2022/10/01 00:34:12;;;;;;;23.43;21.67;;;;;;;10.10;100.00;100337.94;5092121;28;20465;-48
2022/10/01 00:36:40;;;;;;;23.87;22.20;;;;;;;10.11;100.00;100321.75;5092413;28;20829;-48
2022/10/01 00:39:10;;;;;;;23.30;21.50;;;;;;;10.14;100.00;100336.56;5092177;28;20489;-46
2022/10/01 00:41:38;;;;;;;22.80;21.30;;;;;;;10.14;100.00;100325.88;5092064;28;20445;-46
2022/10/01 00:44:34;;;;;;;22.97;21.17;;;;;;;10.14;100.00;100317.91;5091917;28;20881;-46
2022/10/01 00:47:09;;;;;;;22.50;20.63;;;;;;;10.14;100.00;100313.41;5092650;28;20800;-49
2022/10/01 00:49:39;;;;;;;21.40;19.97;;;;;;;10.15;100.00;100314.22;5092054;28;20433;-48
2022/10/01 00:52:15;;;;;;;22.03;20.20;;;;;;;10.15;100.00;100306.22;5091866;28;20449;-46
2022/10/01 00:54:46;;;;;;;22.10;20.70;;;;;;;10.14;100.00;100307.25;5091627;28;20465;-50
2022/10/01 00:57:18;;;;;;;23.13;21.53;;;;;;;10.14;100.00;100304.56;5092104;28;20486;-47
2022/10/01 00:59:46;;;;;;;21.73;20.27;;;;;;;10.14;100.00;100296.59;5092100;28;20522;-45
2022/10/01 01:02:14;;;;;;;20.30;19.00;;;;;;;10.13;100.00;100293.09;5091880;28;20574;-45
2022/10/01 01:04:43;;;;;;;21.23;19.80;;;;;;;10.13;100.00;100286.91;5091573;28;20460;-47
2022/10/01 01:07:12;;;;;;;21.77;20.33;;;;;;;10.14;100.00;100283.25;5092296;28;20429;-49
2022/10/01 01:09:44;;;;;;;20.13;18.70;;;;;;;10.15;100.00;100282.25;5091843;28;20459;-47
2022/10/01 01:12:39;;;;;;;19.60;18.50;;;;;;;10.14;100.00;100280.59;5091568;28;20453;-51
2022/10/01 01:15:17;;;;;;;20.67;19.17;;;;;;;10.15;100.00;100275.06;5086744;28;20602;-47
2022/10/01 01:17:54;;;;;;;19.80;18.40;;;;;;;10.16;100.00;100278.53;5091819;28;20425;-49
2022/10/01 01:20:59;;;;;;;18.27;17.17;;;;;;;10.18;100.00;100276.50;5091669;28;20877;-46
2022/10/01 01:24:05;;;;;;;18.13;16.93;;;;;;;10.17;100.00;100266.88;5049530;28;20433;-47
2022/10/01 01:26:41;;;;;;;19.53;18.17;;;;;;;10.17;100.00;100254.38;5094179;28;20470;-49
2022/10/01 01:29:17;;;;;;;18.30;17.10;;;;;;;10.18;100.00;100256.00;5095958;28;20591;-47
2022/10/01 01:31:46;;;;;;;18.53;17.43;;;;;;;10.19;100.00;100244.31;5095437;28;20461;-49
2022/10/01 01:34:19;;;;;;;18.20;17.00;;;;;;;10.23;100.00;100231.41;5095585;28;20453;-48
2022/10/01 01:36:53;;;;;;;18.17;16.77;;;;;;;10.23;100.00;100231.41;5095856;28;20486;-46
2022/10/01 01:39:23;;;;;;;19.00;17.57;;;;;;;10.23;100.00;100229.56;5095555;28;20470;-52
2022/10/01 01:41:55;;;;;;;17.67;16.67;;;;;;;10.25;100.00;100221.34;5095673;28;20449;-46
2022/10/01 01:44:28;;;;;;;17.47;16.43;;;;;;;10.26;100.00;100221.16;5095250;28;20530;-48
2022/10/01 01:46:58;;;;;;;16.80;15.83;;;;;;;10.28;100.00;100207.59;5095418;28;20471;-50
2022/10/01 01:49:26;;;;;;;18.00;16.57;;;;;;;10.29;100.00;100199.41;5095372;28;20498;-48
2022/10/01 01:51:59;;;;;;;15.97;14.87;;;;;;;10.31;100.00;100205.34;5095141;28;20449;-52
2022/10/01 01:54:28;;;;;;;17.07;16.03;;;;;;;10.34;100.00;100204.13;5094985;28;20457;-48
2022/10/01 01:56:57;;;;;;;16.57;15.47;;;;;;;10.36;100.00;100200.22;5095612;28;20486;-49
2022/10/01 01:59:26;;;;;;;16.97;15.87;;;;;;;10.37;100.00;100199.19;5095548;28;20437;-50
2022/10/01 02:01:54;;;;;;;16.77;15.80;;;;;;;10.41;100.00;100196.94;5095141;28;20473;-52
2022/10/01 02:04:25;;;;;;;16.03;15.00;;;;;;;10.42;100.00;100190.59;5094697;28;20989;-48
2022/10/01 02:07:25;;;;;;;15.37;14.47;;;;;;;10.44;100.00;100192.00;5095451;28;20428;-46
2022/10/01 02:10:04;;;;;;;16.53;15.03;;;;;;;10.43;100.00;100194.88;5095214;28;20437;-49
2022/10/01 02:12:41;;;;;;;15.50;14.50;;;;;;;10.44;100.00;100189.34;5094847;28;20973;-47
2022/10/01 02:15:20;;;;;;;15.00;14.30;;;;;;;10.46;100.00;100184.63;5094625;28;20453;-46
2022/10/01 02:17:59;;;;;;;13.93;13.13;;;;;;;10.47;100.00;100191.59;5094974;28;20425;-46
2022/10/01 02:20:31;;;;;;;14.63;13.73;;;;;;;10.47;100.00;100174.78;5094674;28;20880;-48
2022/10/01 02:23:04;;;;;;;15.07;14.07;;;;;;;10.47;100.00;100172.09;5094574;28;20522;-45
2022/10/01 02:25:40;;;;;;;15.00;14.27;;;;;;;10.48;100.00;100165.75;5094347;28;20473;-46
2022/10/01 02:28:12;;;;;;;15.10;14.37;;;;;;;10.49;100.00;100165.53;5094852;28;20918;-45
2022/10/01 02:30:43;;;;;;;13.50;12.80;;;;;;;10.47;100.00;100159.59;5094417;28;20421;-47
2022/10/01 02:33:15;;;;;;;13.90;13.20;;;;;;;10.47;100.00;100158.78;5093890;28;20453;-49
2022/10/01 02:35:45;;;;;;;14.40;13.60;;;;;;;10.48;100.00;100150.56;5094593;28;20487;-47
2022/10/01 02:38:15;;;;;;;13.80;13.10;;;;;;;10.50;100.00;100156.53;5094365;28;20421;-47
2022/10/01 02:40:45;;;;;;;14.40;13.37;;;;;;;10.49;100.00;100148.72;5094550;28;20473;-46
2022/10/01 02:43:17;;;;;;;13.60;12.93;;;;;;;10.50;100.00;100150.38;5094095;28;20453;-45
2022/10/01 02:45:51;;;;;;;14.23;13.47;;;;;;;10.49;100.00;100138.88;5094526;28;20429;-46
2022/10/01 02:48:19;;;;;;;13.40;12.60;;;;;;;10.47;100.00;100142.78;5094300;28;20428;-49
2022/10/01 02:50:51;;;;;;;12.77;12.10;;;;;;;10.48;100.00;100139.09;5094369;28;20471;-49
2022/10/01 02:53:22;;;;;;;12.10;11.47;;;;;;;10.48;100.00;100128.44;5094027;28;20491;-49
2022/10/01 02:55:52;;;;;;;13.10;12.30;;;;;;;10.46;100.00;100131.31;5094239;28;20476;-48
2022/10/01 02:58:19;;;;;;;12.87;12.10;;;;;;;10.46;100.00;100133.13;5094273;28;20483;-45
2022/10/01 03:00:48;;;;;;;11.53;11.03;;;;;;;10.46;100.00;100136.63;5093773;28;20816;-45
2022/10/01 03:03:15;;;;;;;14.77;13.97;;;;;;;10.47;100.00;100124.13;5093864;28;20499;-47
2022/10/01 03:05:43;;;;;;;13.57;12.87;;;;;;;10.49;100.00;100125.53;5094201;28;20456;-52
2022/10/01 03:08:10;;;;;;;13.70;13.00;;;;;;;10.47;100.00;100111.63;5094144;28;20926;-48
2022/10/01 03:10:38;;;;;;;12.20;11.60;;;;;;;10.47;100.00;100119.63;5093867;28;20434;-47
2022/10/01 03:13:12;;;;;;;12.93;11.97;;;;;;;10.47;100.00;100108.97;5093183;28;20455;-47
2022/10/01 03:15:39;;;;;;;12.73;12.07;;;;;;;10.46;100.00;100107.31;5094066;28;20495;-45
2022/10/01 03:18:08;;;;;;;13.53;12.90;;;;;;;10.47;100.00;100100.13;5093757;28;20437;-46
2022/10/01 03:20:36;;;;;;;12.23;11.63;;;;;;;10.48;100.00;100099.13;5093631;28;20473;-48
2022/10/01 03:23:04;;;;;;;13.03;12.10;;;;;;;10.46;100.00;100098.47;5093319;28;20969;-44
2022/10/01 03:25:31;;;;;;;12.90;12.30;;;;;;;10.45;100.00;100095.00;5093076;28;20511;-47
2022/10/01 03:27:59;;;;;;;13.80;13.00;;;;;;;10.47;100.00;100095.63;5093865;28;20432;-50
2022/10/01 03:30:27;;;;;;;12.70;12.10;;;;;;;10.46;100.00;100093.97;5093680;28;20818;-46
2022/10/01 03:32:55;;;;;;;12.63;11.93;;;;;;;10.50;100.00;100086.38;5093354;28;20509;-53
2022/10/01 03:35:24;;;;;;;12.27;11.57;;;;;;;10.50;100.00;100095.19;5093096;28;20465;-48
2022/10/01 03:37:51;;;;;;;13.13;12.23;;;;;;;10.51;100.00;100086.16;5093438;28;20429;-49
2022/10/01 03:40:19;;;;;;;13.23;12.43;;;;;;;10.53;100.00;100094.78;5093282;28;20798;-48
2022/10/01 03:42:47;;;;;;;12.47;11.77;;;;;;;10.51;100.00;100086.16;5092854;28;20997;-50
2022/10/01 03:45:15;;;;;;;13.50;12.37;;;;;;;10.51;100.00;100083.50;5092763;28;21059;-48
2022/10/01 03:47:42;;;;;;;12.90;12.20;;;;;;;10.50;100.00;100083.72;5093444;28;20486;-48
2022/10/01 03:50:10;;;;;;;14.00;13.10;;;;;;;10.49;100.00;100085.56;5092852;28;20433;-47
2022/10/01 03:52:41;;;;;;;14.57;13.60;;;;;;;10.48;100.00;100085.78;5092787;28;20491;-49
2022/10/01 03:55:09;;;;;;;13.40;12.80;;;;;;;10.47;100.00;100082.31;5092840;28;20469;-50
2022/10/01 03:57:36;;;;;;;13.87;13.20;;;;;;;10.46;100.00;100077.16;5093304;28;20479;-50
2022/10/01 04:00:07;;;;;;;15.37;14.20;;;;;;;10.45;100.00;100075.53;5093103;28;21007;-51
2022/10/01 04:02:35;;;;;;;15.83;14.83;;;;;;;10.44;100.00;100079.22;5092636;28;20545;-49
2022/10/01 04:05:03;;;;;;;16.03;14.90;;;;;;;10.41;100.00;100071.66;5092565;28;20465;-44
2022/10/01 04:07:30;;;;;;;16.80;15.80;;;;;;;10.37;100.00;100065.94;5092973;28;20433;-48
2022/10/01 04:09:59;;;;;;;16.30;15.50;;;;;;;10.36;100.00;100058.94;5092831;28;20438;-45
2022/10/01 04:12:27;;;;;;;16.50;15.43;;;;;;;10.33;100.00;100062.06;5092514;28;20499;-46
2022/10/01 04:14:55;;;;;;;16.80;15.80;;;;;;;10.31;100.00;100056.09;5092296;28;20491;-44
2022/10/01 04:17:22;;;;;;;17.23;16.23;;;;;;;10.29;100.00;100062.69;5092816;28;20490;-44
2022/10/01 04:19:50;;;;;;;18.70;17.80;;;;;;;10.28;100.00;100056.53;5092376;28;20467;-48
2022/10/01 04:22:18;;;;;;;18.70;17.67;;;;;;;10.26;100.00;100047.94;5092140;28;20473;-45
2022/10/01 04:24:45;;;;;;;18.53;17.57;;;;;;;10.26;100.00;100047.94;5092358;28;20495;-45
2022/10/01 04:27:14;;;;;;;19.47;18.57;;;;;;;10.27;100.00;100046.09;5092812;28;20582;-44
2022/10/01 04:29:41;;;;;;;19.37;18.43;;;;;;;10.22;100.00;100032.56;5092576;28;20784;-46
2022/10/01 04:32:09;;;;;;;21.70;20.43;;;;;;;10.25;100.00;100027.63;5092097;28;20518;-50
2022/10/01 04:34:52;;;;;;;21.97;20.40;;;;;;;10.20;100.00;100022.13;5091993;28;20469;-51
2022/10/01 04:37:20;;;;;;;21.90;20.60;;;;;;;10.21;100.00;100020.28;5092522;28;20430;-50
2022/10/01 04:39:47;;;;;;;22.53;21.00;;;;;;;10.17;100.00;100017.22;5092479;28;20494;-51
2022/10/01 04:42:16;;;;;;;21.87;20.67;;;;;;;10.16;100.00;100012.09;5090772;28;20481;-47
2022/10/01 04:44:44;;;;;;;23.90;22.60;;;;;;;10.14;100.00;100004.34;5091713;28;21042;-49
2022/10/01 04:47:11;;;;;;;24.67;23.00;;;;;;;10.10;100.00;99996.94;5092124;28;20441;-51
2022/10/01 04:49:39;;;;;;;25.27;23.97;;;;;;;10.10;100.00;99988.94;5092332;28;20490;-52
2022/10/01 04:52:06;;;;;;;23.63;22.40;;;;;;;10.09;100.00;99990.81;5091936;28;20441;-51
2022/10/01 04:54:34;;;;;;;26.13;24.37;;;;;;;10.07;100.00;99984.84;5091654;28;21055;-46
2022/10/01 04:57:01;;;;;;;25.90;24.50;;;;;;;10.06;100.00;99985.06;5091565;28;20429;-49
2022/10/01 04:59:30;;;;;;;25.30;24.00;;;;;;;10.02;100.00;99979.34;5087844;28;20438;-44
2022/10/01 05:01:58;;;;;;;26.00;24.50;;;;;;;10.00;100.00;99974.22;5091007;28;20985;-44
2022/10/01 05:04:26;;;;;;;25.50;24.10;;;;;;;10.00;100.00;99982.22;5091580;27;20472;-47
2022/10/01 05:06:53;;;;;;;26.20;24.63;;;;;;;10.00;100.00;99973.44;5092122;28;20787;-45
2022/10/01 05:09:21;;;;;;;27.83;26.20;;;;;;;10.00;100.00;99958.25;5091629;28;20434;-49
2022/10/01 05:11:50;;;;;;;27.70;26.30;;;;;;;10.01;100.00;99959.06;5090871;28;20445;-47
2022/10/01 05:14:19;;;;;;;28.53;26.97;;;;;;;9.96;100.00;99957.03;5091339;27;20898;-46
2022/10/01 05:16:48;;;;;;;27.90;26.50;;;;;;;10.00;100.00;99946.78;5092083;28;20475;-45
2022/10/01 05:19:16;;;;;;;28.30;26.60;;;;;;;9.98;100.00;99946.16;5091447;28;20562;-44
2022/10/01 05:21:44;;;;;;;29.50;27.90;;;;;;;9.96;100.00;99937.56;5091151;28;20888;-47
2022/10/01 05:24:13;;;;;;;28.10;26.70;;;;;;;9.94;100.00;99944.97;5084863;28;20799;-45
2022/10/01 05:26:40;;;;;;;29.70;27.80;;;;;;;9.95;100.00;99927.94;5091021;28;20950;-45
2022/10/01 05:29:08;;;;;;;28.37;26.77;;;;;;;9.95;100.00;99931.44;5091746;28;20494;-46
2022/10/01 05:31:36;;;;;;;28.03;26.73;;;;;;;9.96;100.00;99921.59;5091443;28;20461;-44
2022/10/01 05:34:05;;;;;;;29.83;27.97;;;;;;;9.95;100.00;99923.44;5091473;28;20433;-49
2022/10/01 05:36:33;;;;;;;29.40;27.80;;;;;;;9.94;100.00;99913.84;5072882;28;20469;-44
2022/10/01 05:39:01;;;;;;;27.07;25.67;;;;;;;9.91;100.00;99908.94;5091277;28;20430;-47
2022/10/01 05:41:28;;;;;;;28.47;26.97;;;;;;;9.92;100.00;99907.06;5090801;28;20507;-45
2022/10/01 05:43:56;;;;;;;27.67;26.17;;;;;;;9.91;100.00;99903.59;5091731;28;20433;-49
2022/10/01 05:46:23;;;;;;;29.17;27.43;;;;;;;9.91;100.00;99900.13;5079691;28;20457;-44
2022/10/01 05:48:51;;;;;;;29.50;27.80;;;;;;;9.93;100.00;99898.06;5091501;28;20499;-47
2022/10/01 05:51:20;;;;;;;31.30;29.23;;;;;;;9.92;100.00;99897.22;5090826;28;20441;-46
2022/10/01 05:53:48;;;;;;;28.40;26.90;;;;;;;9.94;100.00;99894.38;5091346;28;20931;-44
2022/10/01 05:56:17;;;;;;;29.40;27.70;;;;;;;9.96;100.00;99897.63;5091112;28;20466;-46
2022/10/01 05:58:45;;;;;;;29.47;27.87;;;;;;;9.96;100.00;99893.13;5077488;28;20465;-48
2022/10/01 06:01:13;;;;;;;28.27;26.80;;;;;;;9.96;100.00;99879.81;5090944;28;20490;-44
2022/10/01 06:03:41;;;;;;;29.30;27.57;;;;;;;9.97;100.00;99881.41;5091485;28;20853;-45
2022/10/01 06:06:09;;;;;;;29.70;28.10;;;;;;;9.98;100.00;99883.06;5091061;28;20429;-44
2022/10/01 06:08:38;;;;;;;28.80;27.40;;;;;;;10.01;100.00;99877.31;5067930;28;20479;-48
2022/10/01 06:11:06;;;;;;;28.83;27.43;;;;;;;10.02;100.00;99870.97;5090877;28;20980;-44
2022/10/01 06:13:35;;;;;;;30.03;28.43;;;;;;;10.02;100.00;99872.81;5095034;28;20433;-45
2022/10/01 06:16:03;;;;;;;30.33;28.60;;;;;;;10.02;100.00;99873.63;5094878;28;20506;-45
2022/10/01 06:18:30;;;;;;;28.90;27.40;;;;;;;9.99;100.00;99860.72;5091261;28;20484;-43
2022/10/01 06:20:59;;;;;;;30.70;28.53;;;;;;;9.99;100.00;99870.56;5094645;28;20482;-43
2022/10/01 06:23:27;;;;;;;31.83;30.00;;;;;;;10.00;100.00;99859.69;5069999;28;20473;-43
2022/10/01 06:25:59;;;;;;;29.93;28.17;;;;;;;9.96;100.00;99861.16;5071343;28;20514;-43
2022/10/01 06:28:27;;;;;;;31.10;29.33;;;;;;;9.97;100.00;99860.09;5094765;28;20479;-43
2022/10/01 06:30:55;;;;;;;29.30;27.73;;;;;;;10.01;100.00;99860.50;5094397;28;20444;-48
2022/10/01 06:33:23;;;;;;;28.97;27.37;;;;;;;9.97;100.00;99849.47;5094265;28;21033;-43
2022/10/01 06:35:51;;;;;;;28.67;27.27;;;;;;;10.01;100.00;99852.50;5094141;28;20524;-43
2022/10/01 06:38:21;;;;;;;30.03;28.23;;;;;;;10.05;100.00;99847.56;5094047;28;20494;-44
2022/10/01 06:40:53;;;;;;;30.63;29.03;;;;;;;10.06;100.00;99843.91;5094370;28;20895;-45
2022/10/01 06:43:23;;;;;;;30.50;28.90;;;;;;;10.06;100.00;99843.91;5094153;28;20504;-44
2022/10/01 06:45:51;;;;;;;30.90;28.80;;;;;;;10.05;100.00;99826.28;5093937;28;20469;-44
2022/10/01 06:48:20;;;;;;;29.73;28.13;;;;;;;10.03;100.00;99823.84;5094265;28;20435;-45
2022/10/01 06:50:49;;;;;;;29.70;28.00;;;;;;;10.04;100.00;99825.44;5094185;28;20441;-43
2022/10/01 06:53:18;;;;;;;29.10;27.50;;;;;;;10.00;100.00;99818.94;5093752;28;20491;-43
2022/10/01 06:55:46;;;;;;;27.53;26.23;;;;;;;9.98;100.00;99821.81;5093779;28;20461;-43
2022/10/01 06:58:15;;;;;;;28.27;26.87;;;;;;;10.02;100.00;99808.88;5094045;28;20857;-43
2022/10/01 07:00:45;;;;;;;29.50;27.87;;;;;;;10.02;100.00;99814.19;5094138;28;20459;-50
2022/10/01 07:03:15;;;;;;;27.40;26.00;;;;;;;10.01;100.00;99810.72;5093945;28;20540;-43
2022/10/01 07:05:43;;;;;;;27.67;26.17;;;;;;;10.05;100.00;99812.94;5093645;28;20494;-46
2022/10/01 07:08:10;;;;;;;28.03;26.37;;;;;;;10.07;100.00;99801.03;5093495;28;20434;-45
2022/10/01 07:10:38;;;;;;;29.00;27.30;;;;;;;10.10;100.00;99805.13;5093966;28;20494;-48
2022/10/01 07:13:08;;;;;;;28.27;26.87;;;;;;;10.10;100.00;99792.63;5093445;28;20506;-44
2022/10/01 07:15:36;;;;;;;27.50;26.20;;;;;;;10.08;100.00;99797.34;5093372;28;20982;-44
2022/10/01 07:18:05;;;;;;;27.00;25.70;;;;;;;10.12;100.00;99787.91;5093754;28;20848;-45
2022/10/01 07:20:38;;;;;;;28.63;26.80;;;;;;;10.13;100.00;99786.03;5093570;28;20954;-43
2022/10/01 07:23:07;;;;;;;27.93;26.43;;;;;;;10.14;100.00;99785.88;5091771;28;20500;-44
2022/10/01 07:25:35;;;;;;;29.13;27.53;;;;;;;10.15;100.00;99786.69;5090982;28;20530;-46
2022/10/01 07:28:04;;;;;;;28.07;26.70;;;;;;;10.16;100.00;99789.13;5092090;28;20433;-43
2022/10/01 07:30:32;;;;;;;27.33;25.93;;;;;;;10.16;100.00;99783.78;5092800;28;20545;-45
2022/10/01 07:32:59;;;;;;;27.03;25.63;;;;;;;10.18;100.00;99783.59;5092977;28;20500;-44
2022/10/01 07:35:28;;;;;;;27.90;26.47;;;;;;;10.17;100.00;99779.28;5091119;28;20461;-48
2022/10/01 07:37:56;;;;;;;27.80;26.30;;;;;;;10.18;100.00;99779.09;5089030;28;20453;-51
2022/10/01 07:40:23;;;;;;;28.33;26.93;;;;;;;10.21;100.00;99778.66;5090853;28;20460;-51
2022/10/01 07:42:55;;;;;;;27.73;26.33;;;;;;;10.25;100.00;99782.50;5091814;28;20515;-49
2022/10/01 07:45:23;;;;;;;28.07;26.57;;;;;;;10.27;100.00;99774.31;5092043;27;20515;-45
2022/10/01 07:47:54;;;;;;;28.07;26.77;;;;;;;10.31;100.00;99778.13;5092373;28;20522;-48
2022/10/01 07:50:22;;;;;;;27.53;26.17;;;;;;;10.30;100.00;99777.34;5091422;28;20426;-47
2022/10/01 07:52:55;;;;;;;27.40;25.70;;;;;;;10.31;100.00;99773.63;5091863;28;20511;-45
2022/10/01 07:55:25;;;;;;;26.70;25.40;;;;;;;10.31;100.00;99776.28;5090076;27;20511;-46
2022/10/01 07:57:54;;;;;;;26.23;24.93;;;;;;;10.32;100.00;99769.94;5089908;28;20833;-51
2022/10/01 08:00:24;;;;;;;27.93;26.00;;;;;;;10.36;100.00;99775.66;5091283;28;20426;-47
2022/10/01 08:02:54;;;;;;;27.67;26.30;;;;;;;10.37;100.00;99774.59;5091165;28;20450;-46
2022/10/01 08:05:24;;;;;;;27.23;25.87;;;;;;;10.36;100.00;99771.13;5088546;28;20457;-46
2022/10/01 08:07:58;;;;;;;26.60;25.40;;;;;;;10.34;100.00;99770.53;5092053;28;20429;-50
2022/10/01 08:10:25;;;;;;;27.30;26.00;;;;;;;10.36;100.00;99765.78;5090101;28;20833;-46
2022/10/01 08:13:00;;;;;;;27.27;25.80;;;;;;;10.37;100.00;99766.59;5091335;28;20453;-48
2022/10/01 08:15:28;;;;;;;26.73;25.47;;;;;;;10.38;100.00;99757.59;5088652;28;20463;-44
2022/10/01 08:17:55;;;;;;;27.27;25.87;;;;;;;10.37;100.00;99751.44;5091358;28;20429;-52
2022/10/01 08:20:23;;;;;;;26.63;25.33;;;;;;;10.41;100.00;99749.16;5090740;28;20499;-45
2022/10/01 08:22:50;;;;;;;26.93;25.53;;;;;;;10.42;100.00;99762.25;5090566;28;20498;-48
2022/10/01 08:25:19;;;;;;;27.87;26.47;;;;;;;10.45;100.00;99753.81;5090793;28;21204;-44
2022/10/01 08:27:48;;;;;;;25.97;24.73;;;;;;;10.46;100.00;99746.63;5090379;28;20487;-46
2022/10/01 08:30:15;;;;;;;26.87;25.40;;;;;;;10.48;100.00;99748.03;5089938;28;20978;-50
2022/10/01 08:32:43;;;;;;;29.00;27.60;;;;;;;10.52;100.00;99748.44;5090136;28;20511;-45
2022/10/01 08:35:11;;;;;;;27.60;26.40;;;;;;;10.54;100.00;99752.50;5090584;28;20469;-50
2022/10/01 08:37:38;;;;;;;28.73;27.13;;;;;;;10.56;100.00;99752.28;5090920;28;20463;-49
2022/10/01 08:40:08;;;;;;;26.13;24.93;;;;;;;10.59;100.00;99759.84;5090072;28;20433;-47
2022/10/01 08:42:50;;;;;;;27.40;25.80;;;;;;;10.61;100.00;99754.28;5090366;28;20457;-46
2022/10/01 08:45:24;;;;;;;25.70;24.50;;;;;;;10.62;100.00;99750.59;5077099;28;20530;-48
2022/10/01 08:47:59;;;;;;;25.63;24.53;;;;;;;10.62;100.00;99739.94;5091226;28;20428;-54
2022/10/01 08:50:35;;;;;;;27.23;25.83;;;;;;;10.62;100.00;99735.41;5090386;28;20429;-49
2022/10/01 08:53:06;;;;;;;26.93;25.57;;;;;;;10.62;100.00;99735.41;5089614;28;20467;-51
2022/10/01 08:55:36;;;;;;;27.07;25.87;;;;;;;10.64;100.00;99733.34;5090232;27;20461;-45
2022/10/01 08:58:10;;;;;;;26.73;25.53;;;;;;;10.65;100.00;99734.97;5090555;28;20433;-44
2022/10/01 09:00:41;;;;;;;26.90;25.50;;;;;;;10.67;100.00;99738.22;5090295;28;20490;-47
2022/10/01 09:03:13;;;;;;;28.53;27.20;;;;;;;10.71;100.00;99726.09;5090213;28;20480;-48
2022/10/01 09:05:52;;;;;;;28.20;26.80;;;;;;;10.75;100.00;99729.91;5090537;27;20522;-45
2022/10/01 09:08:43;;;;;;;27.13;25.83;;;;;;;10.79;100.00;99724.97;5088935;28;20479;-44
2022/10/01 09:11:20;;;;;;;27.70;26.40;;;;;;;10.83;100.00;99734.16;5084695;28;20494;-44
2022/10/01 09:14:01;;;;;;;27.77;26.47;;;;;;;10.83;100.00;99726.16;5090907;28;20429;-44
2022/10/01 09:16:37;;;;;;;26.70;25.50;;;;;;;10.86;100.00;99726.53;5084354;28;20461;-44
2022/10/01 09:19:21;;;;;;;26.20;24.90;;;;;;;10.88;100.00;99731.63;5089894;28;20429;-45
2022/10/01 09:21:56;;;;;;;26.20;24.93;;;;;;;10.89;100.00;99722.59;5087240;28;20442;-44
2022/10/01 09:24:39;;;;;;;27.00;25.70;;;;;;;10.91;100.00;99709.84;5090437;27;20477;-44
2022/10/01 09:27:13;;;;;;;26.23;25.03;;;;;;;10.99;100.00;99706.91;5090400;28;20426;-48
2022/10/01 09:29:47;;;;;;;26.57;25.40;;;;;;;11.05;100.00;99704.13;5089942;28;21007;-46
2022/10/01 09:32:20;;;;;;;25.50;24.40;;;;;;;11.09;100.00;99702.66;5085801;28;20483;-46
2022/10/01 09:34:48;;;;;;;24.67;23.57;;;;;;;11.14;100.00;99695.84;5090048;28;20449;-52
2022/10/01 09:37:26;;;;;;;24.57;23.53;;;;;;;11.19;100.00;99699.44;5090433;28;20475;-44
2022/10/01 09:40:04;;;;;;;25.73;24.53;;;;;;;11.27;100.00;99706.31;5086396;28;21006;-44
2022/10/01 09:42:32;;;;;;;27.13;25.80;;;;;;;11.30;100.00;99695.19;5089825;28;20925;-44
2022/10/01 09:45:00;;;;;;;25.97;24.77;;;;;;;11.37;100.00;99690.59;5089850;27;20465;-44
2022/10/01 09:47:28;;;;;;;25.40;24.40;;;;;;;11.46;100.00;99691.88;5093061;28;20463;-46
2022/10/01 09:50:00;;;;;;;26.30;25.10;;;;;;;11.50;100.00;99699.19;5092477;28;20479;-45
2022/10/01 09:52:33;;;;;;;25.70;24.50;;;;;;;11.55;100.00;99693.19;5093699;28;20497;-46
2022/10/01 09:55:04;;;;;;;26.67;25.20;;;;;;;11.62;100.00;99696.56;5088634;28;20457;-49
2022/10/01 09:57:36;;;;;;;25.87;24.77;;;;;;;11.72;100.00;99698.72;5094651;28;20433;-43
2022/10/01 10:00:10;;;;;;;26.97;25.73;;;;;;;11.72;100.00;99693.38;5093102;28;20433;-46
2022/10/01 10:02:40;;;;;;;27.30;26.10;;;;;;;11.82;100.00;99693.63;5093523;28;20498;-46
2022/10/01 10:05:17;;;;;;;26.90;25.70;;;;;;;12.00;100.00;99694.38;5086498;28;20481;-45
2022/10/01 10:07:46;;;;;;;27.10;25.80;;;;;;;12.26;100.00;99698.44;5087371;28;21018;-48
2022/10/01 10:10:19;;;;;;;26.97;25.57;;;;;;;12.44;100.00;99687.63;5092791;28;20942;-45
2022/10/01 10:12:56;;;;;;;28.43;27.13;;;;;;;12.69;100.00;99690.03;5093564;28;20445;-44
2022/10/01 10:15:26;;;;;;;27.37;26.07;;;;;;;12.74;100.00;99695.47;5093603;28;20461;-45
2022/10/01 10:17:54;;;;;;;27.47;26.17;;;;;;;12.89;100.00;99681.59;5093653;28;20798;-48
2022/10/01 10:20:29;;;;;;;27.67;26.17;;;;;;;12.99;100.00;99692.50;5092574;28;20931;-44
2022/10/01 10:23:07;;;;;;;27.10;25.80;;;;;;;13.26;100.00;99690.94;5093335;28;20473;-44
2022/10/01 10:25:35;;;;;;;28.40;27.10;;;;;;;13.52;100.00;99690.34;5093203;27;20469;-48
2022/10/01 10:28:03;;;;;;;28.40;27.03;;;;;;;13.86;100.00;99689.31;5093637;28;20433;-44
2022/10/01 10:30:33;;;;;;;29.27;27.77;;;;;;;14.15;100.00;99683.88;5093122;28;21242;-43
2022/10/01 10:33:06;;;;;;;29.97;28.27;;;;;;;14.39;100.00;99671.94;5093010;28;20461;-46
2022/10/01 10:35:35;;;;;;;28.73;27.30;;;;;;;14.66;100.00;99680.88;5093532;28;20454;-44
2022/10/01 10:38:02;;;;;;;29.53;27.93;;;;;;;14.77;100.00;99677.25;5093552;28;20490;-44
2022/10/01 10:40:34;;;;;;;29.50;28.00;;;;;;;14.88;100.00;99686.25;5092958;28;20437;-46
2022/10/01 10:43:02;;;;;;;29.77;28.27;;;;;;;14.98;100.00;99686.38;5092875;28;20503;-47
2022/10/01 10:45:36;;;;;;;29.67;28.37;;;;;;;15.18;100.00;99683.91;5092996;28;20465;-44
2022/10/01 10:48:06;;;;;;;29.63;28.20;;;;;;;15.44;100.00;99674.25;5093129;28;20833;-47
2022/10/01 10:50:38;;;;;;;29.60;27.97;;;;;;;15.61;100.00;99682.22;5093067;28;20487;-51
2022/10/01 10:53:20;;;;;;;30.20;28.53;;;;;;;15.67;100.00;99687.41;5092020;28;20510;-45
2022/10/01 10:55:57;;;;;;;31.13;29.40;;;;;;;15.66;100.00;99683.09;5092876;28;21083;-50
2022/10/01 10:58:26;;;;;;;30.77;28.97;;;;;;;15.75;100.00;99694.19;5092878;28;20467;-48
2022/10/01 11:00:58;;;;;;;28.43;26.43;;;;;;;16.01;100.00;99679.88;5091836;28;21015;-47
2022/10/01 11:03:29;;;;;;;29.10;26.83;;;;;;;16.44;100.00;99686.91;5093049;28;20506;-45
2022/10/01 11:06:02;;;;;;;27.03;25.03;;;;;;;16.90;100.00;99682.59;5092729;28;20531;-47
2022/10/01 11:08:30;;;;;;;29.27;26.83;;;;;;;17.01;100.00;99676.16;5092535;28;20492;-47
2022/10/01 11:11:11;;;;;;;29.70;26.60;;;;;;;17.07;100.00;99693.97;5091960;28;20498;-46
2022/10/01 11:13:50;;;;;;;29.40;26.60;;;;;;;17.35;100.00;99688.09;5093428;28;20429;-47
2022/10/01 11:16:43;;;;;;;28.73;26.20;;;;;;;17.75;100.00;99692.78;5092742;28;20510;-45
2022/10/01 11:19:24;;;;;;;26.00;24.00;;;;;;;17.79;96.72;99690.38;5083340;28;20429;-44
2022/10/01 11:22:06;;;;;;;28.37;26.20;;;;;;;18.02;96.24;99692.53;5089343;28;20864;-44
2022/10/01 11:25:00;;;;;;;27.83;25.50;;;;;;;18.20;95.53;99697.38;5072567;28;20784;-45